Time;durP1;ratioP1;P1;durP2;ratioP2;P2;SDS_P1;SDS_P2;PMS_P1;PMS_P2;Temp;Humidity;BMP_temperature;BMP_pressure;BME280_temperature;BME280_humidity;BME280_pressure;Samples;Min_cycle;Max_cycle;Signal;HPM_P1;HPM_P2
2023/12/26 00:00:52;;;;;;;1.45;0.98;;;11.10;99.90;;;;;;5051883;28;20056;-74
2023/12/26 00:03:18;;;;;;;1.10;0.80;;;11.10;99.90;;;;;;5044728;28;20481;-76
2023/12/26 00:05:46;;;;;;;2.28;0.95;;;11.10;99.90;;;;;;5048833;28;20033;-77
2023/12/26 00:08:12;;;;;;;1.77;0.90;;;11.10;99.90;;;;;;5050976;28;20087;-76
2023/12/26 00:10:38;;;;;;;3.03;1.30;;;11.10;99.90;;;;;;5046344;28;20020;-77
2023/12/26 00:13:04;;;;;;;2.65;1.08;;;11.10;99.90;;;;;;5049482;28;20047;-75
2023/12/26 00:15:30;;;;;;;2.83;1.10;;;11.10;99.90;;;;;;5047750;28;20120;-74
2023/12/26 00:17:55;;;;;;;3.88;1.77;;;11.10;99.90;;;;;;5048760;28;20051;-74
2023/12/26 00:20:21;;;;;;;3.50;1.30;;;11.10;99.90;;;;;;5032797;28;20075;-77
2023/12/26 00:22:46;;;;;;;3.45;1.63;;;11.00;99.90;;;;;;5051159;28;20079;-76
2023/12/26 00:25:12;;;;;;;4.55;1.65;;;11.00;99.90;;;;;;5047423;28;20804;-75
2023/12/26 00:27:39;;;;;;;6.60;2.30;;;11.00;99.90;;;;;;5044776;28;20734;-75
2023/12/26 00:30:08;;;;;;;3.88;2.13;;;10.90;99.90;;;;;;5051546;28;20041;-75
2023/12/26 00:32:34;;;;;;;4.97;1.90;;;10.80;99.90;;;;;;5046751;28;20087;-76
2023/12/26 00:34:59;;;;;;;3.58;1.35;;;10.80;99.90;;;;;;5050099;28;20037;-76
2023/12/26 00:37:25;;;;;;;6.28;2.00;;;10.70;99.90;;;;;;5048443;28;20150;-76
2023/12/26 00:39:52;;;;;;;7.03;2.05;;;10.70;99.90;;;;;;5049517;28;20558;-76
2023/12/26 00:42:18;;;;;;;6.93;2.10;;;10.70;99.90;;;;;;5050754;28;20071;-76
2023/12/26 00:44:43;;;;;;;5.50;1.88;;;10.70;99.90;;;;;;5033538;28;20488;-76
2023/12/26 00:47:09;;;;;;;5.85;1.42;;;10.60;99.90;;;;;;5050450;28;20021;-75
2023/12/26 00:49:35;;;;;;;3.42;0.90;;;10.60;99.90;;;;;;5031931;28;20540;-75
2023/12/26 00:52:00;;;;;;;5.55;1.10;;;10.60;99.90;;;;;;5048791;28;20028;-76
2023/12/26 00:54:26;;;;;;;3.30;0.90;;;10.60;99.90;;;;;;5030953;28;20044;-76
2023/12/26 00:56:52;;;;;;;5.32;1.30;;;10.60;99.90;;;;;;5049928;28;20032;-76
2023/12/26 00:59:17;;;;;;;3.67;1.00;;;10.60;99.90;;;;;;5049667;28;20548;-75
2023/12/26 01:01:43;;;;;;;4.57;1.00;;;10.60;99.90;;;;;;5050602;28;20081;-76
2023/12/26 01:04:09;;;;;;;3.88;0.90;;;10.60;99.90;;;;;;5044531;28;20056;-75
2023/12/26 01:06:35;;;;;;;1.80;0.73;;;10.60;99.90;;;;;;5028111;28;20541;-75
2023/12/26 01:09:00;;;;;;;6.22;0.85;;;10.60;99.90;;;;;;5048097;28;20108;-76
2023/12/26 01:11:26;;;;;;;4.50;0.90;;;10.60;99.90;;;;;;5047216;28;20126;-76
2023/12/26 01:13:51;;;;;;;2.55;0.63;;;10.60;99.90;;;;;;5049509;28;20174;-76
2023/12/26 01:16:18;;;;;;;2.30;0.77;;;10.60;99.90;;;;;;5048899;28;20036;-76
2023/12/26 01:18:44;;;;;;;2.90;0.70;;;10.60;99.90;;;;;;5049563;28;20032;-76
2023/12/26 01:21:09;;;;;;;4.88;1.02;;;10.60;99.90;;;;;;5049475;28;20029;-75
2023/12/26 01:23:35;;;;;;;4.30;0.80;;;10.60;99.90;;;;;;5048604;28;20040;-75
2023/12/26 01:26:01;;;;;;;6.90;1.00;;;10.60;99.90;;;;;;5041390;28;20029;-76
2023/12/26 01:28:26;;;;;;;4.03;0.80;;;10.70;99.90;;;;;;5047921;28;20436;-75
2023/12/26 01:30:52;;;;;;;3.45;0.90;;;10.70;99.90;;;;;;5050016;28;20032;-76
2023/12/26 01:33:18;;;;;;;2.20;0.80;;;10.70;99.90;;;;;;5047843;28;20032;-75
2023/12/26 01:35:43;;;;;;;3.13;0.70;;;10.70;99.90;;;;;;5043814;28;20028;-75
2023/12/26 01:38:09;;;;;;;2.42;0.60;;;10.70;99.90;;;;;;5046919;28;20044;-75
2023/12/26 01:40:35;;;;;;;1.55;0.68;;;10.80;99.90;;;;;;5046735;28;20071;-75
2023/12/26 01:43:00;;;;;;;3.90;0.73;;;10.80;99.90;;;;;;5049649;28;20021;-75
2023/12/26 01:45:26;;;;;;;1.20;0.50;;;10.80;99.90;;;;;;5046927;28;20025;-75
2023/12/26 01:47:55;;;;;;;2.63;0.60;;;10.80;99.90;;;;;;5045259;28;20041;-75
2023/12/26 01:50:23;;;;;;;2.33;0.60;;;10.80;99.90;;;;;;5048062;28;20506;-75
2023/12/26 01:52:49;;;;;;;2.17;0.70;;;10.80;99.90;;;;;;5049649;28;20036;-76
2023/12/26 01:55:17;;;;;;;2.10;0.70;;;10.80;99.90;;;;;;5028549;28;20021;-76
2023/12/26 01:57:43;;;;;;;3.28;1.08;;;10.80;99.90;;;;;;5046798;28;20546;-76
2023/12/26 02:00:10;;;;;;;1.67;0.70;;;10.80;99.90;;;;;;5048467;28;20021;-76
2023/12/26 02:02:36;;;;;;;2.30;0.70;;;10.80;99.90;;;;;;5048399;28;20507;-76
2023/12/26 02:05:02;;;;;;;3.97;1.00;;;10.80;99.90;;;;;;5050232;28;20104;-76
2023/12/26 02:07:28;;;;;;;3.58;1.08;;;10.80;99.90;;;;;;5047712;28;20029;-75
2023/12/26 02:09:54;;;;;;;2.63;0.98;;;10.80;99.90;;;;;;5048363;28;20066;-76
2023/12/26 02:12:20;;;;;;;2.25;0.98;;;10.70;99.90;;;;;;5049160;28;20040;-76
2023/12/26 02:14:47;;;;;;;2.92;1.42;;;10.80;99.90;;;;;;5030023;28;20079;-76
2023/12/26 02:17:19;;;;;;;2.92;1.00;;;10.80;99.90;;;;;;5047228;28;20783;-75
2023/12/26 02:19:46;;;;;;;2.13;1.05;;;10.80;99.90;;;;;;5049000;28;20025;-76
2023/12/26 02:22:12;;;;;;;3.03;0.90;;;10.80;99.90;;;;;;5031243;28;20072;-76
2023/12/26 02:24:42;;;;;;;2.42;0.75;;;10.70;99.90;;;;;;5052587;28;20483;-76
2023/12/26 02:27:15;;;;;;;2.75;0.90;;;10.70;99.90;;;;;;5052900;28;20494;-76
2023/12/26 02:29:43;;;;;;;2.20;0.80;;;10.70;99.90;;;;;;5050151;28;20029;-75
2023/12/26 02:32:10;;;;;;;2.90;0.52;;;10.70;99.90;;;;;;5052479;28;20472;-75
2023/12/26 02:34:37;;;;;;;5.65;0.90;;;10.60;99.90;;;;;;5051786;28;20037;-75
2023/12/26 02:37:03;;;;;;;1.75;0.50;;;10.60;99.90;;;;;;5053218;28;20527;-75
2023/12/26 02:39:29;;;;;;;2.25;0.50;;;10.60;99.90;;;;;;5049964;28;20057;-75
2023/12/26 02:41:54;;;;;;;1.77;0.65;;;10.60;99.90;;;;;;5050786;28;20033;-75
2023/12/26 02:44:20;;;;;;;3.08;0.65;;;10.60;99.90;;;;;;5051995;28;20072;-75
2023/12/26 02:46:45;;;;;;;2.63;0.60;;;10.60;99.90;;;;;;5050550;28;20025;-75
2023/12/26 02:49:11;;;;;;;1.85;0.40;;;10.60;99.90;;;;;;5048661;28;20037;-75
2023/12/26 02:51:37;;;;;;;2.67;0.50;;;10.50;99.90;;;;;;5047459;28;20025;-75
2023/12/26 02:54:03;;;;;;;2.25;0.47;;;10.50;99.90;;;;;;5048624;28;20563;-75
2023/12/26 02:56:28;;;;;;;4.18;0.50;;;10.50;99.90;;;;;;5048647;28;20025;-75
2023/12/26 02:58:54;;;;;;;3.60;0.98;;;10.50;99.90;;;;;;5051440;28;20120;-75
2023/12/26 03:01:19;;;;;;;6.13;0.70;;;10.50;99.90;;;;;;5049153;28;20021;-75
2023/12/26 03:03:45;;;;;;;3.13;0.90;;;10.40;99.90;;;;;;5051152;28;20036;-74
2023/12/26 03:06:11;;;;;;;5.15;0.90;;;10.40;99.90;;;;;;5052735;28;20032;-75
2023/12/26 03:08:36;;;;;;;2.60;0.73;;;10.40;99.90;;;;;;5051925;28;20037;-74
2023/12/26 03:11:02;;;;;;;4.32;0.98;;;10.40;99.90;;;;;;5050839;28;20493;-75
2023/12/26 03:13:28;;;;;;;3.42;0.80;;;10.40;99.90;;;;;;5049600;28;20515;-74
2023/12/26 03:15:53;;;;;;;3.40;0.55;;;10.40;99.90;;;;;;5051151;28;20028;-74
2023/12/26 03:18:20;;;;;;;3.78;0.40;;;10.40;99.90;;;;;;5048846;28;20021;-74
2023/12/26 03:20:46;;;;;;;6.97;0.70;;;10.40;99.90;;;;;;5049844;28;20452;-74
2023/12/26 03:23:11;;;;;;;4.53;0.55;;;10.30;99.90;;;;;;5049669;28;20025;-74
2023/12/26 03:25:37;;;;;;;6.90;0.77;;;10.40;99.90;;;;;;5051382;28;20032;-74
2023/12/26 03:28:03;;;;;;;2.78;0.40;;;10.40;99.90;;;;;;5051689;28;20028;-74
2023/12/26 03:30:29;;;;;;;6.63;0.70;;;10.40;99.90;;;;;;5049805;28;20044;-74
2023/12/26 03:32:54;;;;;;;5.88;0.60;;;10.40;99.90;;;;;;5049546;28;20365;-74
2023/12/26 03:35:20;;;;;;;7.00;1.05;;;10.40;99.90;;;;;;5050180;28;20488;-75
2023/12/26 03:37:46;;;;;;;6.25;0.50;;;10.40;99.90;;;;;;5049553;28;20037;-75
2023/12/26 03:40:11;;;;;;;6.60;0.50;;;10.40;99.90;;;;;;5049719;28;20029;-75
2023/12/26 03:42:37;;;;;;;6.38;0.55;;;10.40;99.90;;;;;;5049972;28;20100;-74
2023/12/26 03:45:03;;;;;;;10.80;0.60;;;10.40;99.90;;;;;;5049973;28;20522;-75
2023/12/26 03:47:29;;;;;;;7.85;0.50;;;10.40;99.90;;;;;;5049468;28;20026;-74
2023/12/26 03:49:55;;;;;;;8.77;0.47;;;10.40;99.90;;;;;;5050936;28;20669;-74
2023/12/26 03:52:20;;;;;;;10.52;0.52;;;10.50;99.90;;;;;;5048309;28;20021;-75
2023/12/26 03:54:46;;;;;;;8.32;0.50;;;10.40;99.90;;;;;;5049703;28;20086;-75
2023/12/26 03:57:12;;;;;;;6.85;0.88;;;10.40;99.90;;;;;;5046823;28;20049;-74
2023/12/26 03:59:39;;;;;;;10.20;0.60;;;10.40;99.90;;;;;;5051933;28;20052;-75
2023/12/26 04:02:05;;;;;;;10.55;0.50;;;10.30;99.90;;;;;;5051225;28;20025;-74
2023/12/26 04:04:30;;;;;;;9.30;0.40;;;10.30;99.90;;;;;;5049502;28;20021;-75
2023/12/26 04:06:56;;;;;;;6.45;0.55;;;10.30;99.90;;;;;;5038594;28;20026;-74
2023/12/26 04:09:23;;;;;;;8.40;0.43;;;10.30;99.90;;;;;;5045612;28;20115;-75
2023/12/26 04:11:48;;;;;;;13.85;0.70;;;10.30;99.90;;;;;;5048569;28;20061;-75
2023/12/26 04:14:15;;;;;;;10.50;0.70;;;10.30;99.90;;;;;;5047055;28;20044;-75
2023/12/26 04:16:40;;;;;;;5.88;0.50;;;10.30;99.90;;;;;;5047458;28;20029;-75
2023/12/26 04:19:06;;;;;;;3.28;0.30;;;10.20;99.90;;;;;;5051923;28;20025;-75
2023/12/26 04:21:32;;;;;;;5.80;0.45;;;10.20;99.90;;;;;;5047770;28;20029;-75
2023/12/26 04:23:57;;;;;;;6.45;0.40;;;10.20;99.90;;;;;;5048873;28;20025;-75
2023/12/26 04:26:23;;;;;;;10.10;0.50;;;10.10;99.90;;;;;;5048729;28;20021;-74
2023/12/26 04:28:49;;;;;;;6.80;0.52;;;10.10;99.90;;;;;;5029704;28;20032;-75
2023/12/26 04:31:15;;;;;;;9.90;0.68;;;10.10;99.90;;;;;;5049673;28;20025;-75
2023/12/26 04:33:40;;;;;;;4.53;0.57;;;10.10;99.90;;;;;;5051131;28;20493;-75
2023/12/26 04:36:06;;;;;;;4.97;0.28;;;10.10;99.90;;;;;;5046979;28;20115;-75
2023/12/26 04:38:32;;;;;;;6.18;0.85;;;10.00;99.90;;;;;;5036250;28;20045;-75
2023/12/26 04:40:58;;;;;;;2.72;0.30;;;10.00;99.90;;;;;;5038817;28;20037;-75
2023/12/26 04:43:23;;;;;;;7.50;0.40;;;9.90;99.90;;;;;;5047619;28;20036;-75
2023/12/26 04:45:49;;;;;;;4.65;0.50;;;9.90;99.90;;;;;;5047484;28;20143;-75
2023/12/26 04:48:15;;;;;;;7.35;0.40;;;9.80;99.90;;;;;;5047568;28;20017;-75
2023/12/26 04:50:41;;;;;;;7.93;0.50;;;9.80;99.90;;;;;;5028756;28;20051;-75
2023/12/26 04:53:06;;;;;;;6.63;0.40;;;9.70;99.90;;;;;;5048538;28;20481;-75
2023/12/26 04:55:32;;;;;;;3.83;0.50;;;9.70;99.90;;;;;;5048396;28;20041;-75
2023/12/26 04:57:58;;;;;;;8.20;0.40;;;9.70;99.90;;;;;;5026758;28;20052;-75
2023/12/26 05:00:24;;;;;;;4.95;0.30;;;9.60;99.90;;;;;;5049169;28;20037;-75
2023/12/26 05:02:50;;;;;;;4.13;0.30;;;9.50;99.90;;;;;;5030636;28;20083;-75
2023/12/26 05:05:16;;;;;;;3.22;0.30;;;9.50;99.90;;;;;;5049782;28;20029;-75
2023/12/26 05:07:41;;;;;;;5.70;0.30;;;9.50;99.90;;;;;;5046278;28;20104;-75
2023/12/26 05:10:08;;;;;;;10.73;1.48;;;9.60;99.90;;;;;;5049708;28;20496;-75
2023/12/26 05:12:33;;;;;;;8.00;0.40;;;9.60;99.90;;;;;;5049261;28;20036;-75
2023/12/26 05:14:59;;;;;;;7.57;0.40;;;9.60;99.90;;;;;;5049920;28;20029;-75
2023/12/26 05:17:25;;;;;;;7.97;0.85;;;9.60;99.90;;;;;;5042177;28;20025;-75
2023/12/26 05:19:51;;;;;;;11.07;0.40;;;9.60;99.90;;;;;;5050946;28;20029;-76
2023/12/26 05:22:17;;;;;;;4.22;0.30;;;9.50;99.90;;;;;;5050053;28;20021;-74
2023/12/26 05:24:43;;;;;;;5.72;0.40;;;9.50;99.90;;;;;;5050305;28;20025;-74
2023/12/26 05:27:08;;;;;;;8.10;0.43;;;9.50;99.90;;;;;;5040820;28;20495;-74
2023/12/26 05:29:34;;;;;;;7.90;0.40;;;9.40;99.90;;;;;;5046629;28;20035;-74
2023/12/26 05:31:59;;;;;;;12.43;0.65;;;9.40;99.90;;;;;;5050302;28;20079;-74
2023/12/26 05:34:25;;;;;;;7.25;0.30;;;9.30;99.90;;;;;;5046276;28;20390;-75
2023/12/26 05:36:51;;;;;;;7.45;0.60;;;9.30;99.90;;;;;;5030395;28;20115;-73
2023/12/26 05:39:17;;;;;;;5.35;0.45;;;9.20;99.90;;;;;;5048707;28;20435;-76
2023/12/26 05:41:42;;;;;;;6.88;0.47;;;9.20;99.90;;;;;;5050487;28;20033;-76
2023/12/26 05:44:08;;;;;;;4.30;0.30;;;9.10;99.90;;;;;;5047990;28;20266;-76
2023/12/26 05:46:34;;;;;;;4.75;0.40;;;9.00;99.90;;;;;;5049872;28;20112;-76
2023/12/26 05:48:59;;;;;;;6.20;0.25;;;9.00;99.90;;;;;;5049205;28;20497;-76
2023/12/26 05:51:25;;;;;;;9.77;1.23;;;8.90;99.90;;;;;;5048935;28;20230;-76
2023/12/26 05:53:51;;;;;;;6.45;0.40;;;8.90;99.90;;;;;;5050606;28;20037;-76
2023/12/26 05:56:18;;;;;;;7.80;0.38;;;8.90;99.90;;;;;;5036904;28;20104;-74
2023/12/26 05:58:44;;;;;;;4.20;0.38;;;8.90;99.90;;;;;;5052547;28;20021;-76
2023/12/26 06:01:10;;;;;;;8.27;0.70;;;8.90;99.90;;;;;;5052795;28;20556;-76
2023/12/26 06:03:38;;;;;;;13.07;0.65;;;8.90;99.90;;;;;;5048931;28;20100;-77
2023/12/26 06:06:08;;;;;;;8.05;0.57;;;8.90;99.90;;;;;;5053128;28;20078;-76
2023/12/26 06:08:33;;;;;;;9.02;0.60;;;8.80;99.90;;;;;;5045773;28;20029;-76
2023/12/26 06:11:01;;;;;;;6.22;0.40;;;8.80;99.90;;;;;;5037732;28;20441;-76
2023/12/26 06:13:27;;;;;;;7.30;1.25;;;8.70;99.90;;;;;;5039497;28;20037;-76
2023/12/26 06:15:53;;;;;;;6.20;0.38;;;8.80;99.90;;;;;;5053547;28;20032;-76
2023/12/26 06:18:19;;;;;;;5.90;0.35;;;8.70;99.90;;;;;;5046176;28;20026;-75
2023/12/26 06:20:44;;;;;;;9.90;0.45;;;8.80;99.90;;;;;;5020841;28;20045;-76
2023/12/26 06:23:10;;;;;;;6.55;0.30;;;8.80;99.90;;;;;;5054029;28;20123;-76
2023/12/26 06:25:36;;;;;;;8.13;0.30;;;8.80;99.90;;;;;;5051620;28;20025;-77
2023/12/26 06:28:02;;;;;;;3.70;0.40;;;8.80;99.90;;;;;;5042105;28;20071;-77
2023/12/26 06:30:31;;;;;;;6.60;0.50;;;8.80;99.90;;;;;;5049699;28;20528;-76
2023/12/26 06:32:57;;;;;;;10.82;0.50;;;8.80;99.90;;;;;;5048372;28;20462;-77
2023/12/26 06:35:22;;;;;;;4.80;0.30;;;8.70;99.90;;;;;;5050352;28;20082;-77
2023/12/26 06:37:48;;;;;;;8.68;0.43;;;8.70;99.90;;;;;;5051512;28;20181;-76
2023/12/26 06:40:13;;;;;;;7.97;0.68;;;8.70;99.90;;;;;;5051417;28;20548;-75
2023/12/26 06:42:39;;;;;;;6.85;0.40;;;8.70;99.90;;;;;;5030240;28;20108;-76
2023/12/26 06:45:06;;;;;;;7.47;0.50;;;8.60;99.90;;;;;;5037153;28;20037;-74
2023/12/26 06:47:32;;;;;;;7.60;0.40;;;8.60;99.90;;;;;;5046031;28;20029;-74
2023/12/26 06:49:58;;;;;;;9.23;0.40;;;8.50;99.90;;;;;;5045877;28;20039;-75
2023/12/26 06:52:24;;;;;;;6.05;0.30;;;8.40;99.90;;;;;;5049215;28;20097;-75
2023/12/26 06:54:49;;;;;;;5.82;0.30;;;8.40;99.90;;;;;;5051659;28;20033;-75
2023/12/26 06:57:15;;;;;;;11.27;0.50;;;8.40;99.90;;;;;;5053688;28;20445;-75
2023/12/26 06:59:47;;;;;;;9.65;0.35;;;8.30;99.90;;;;;;5046269;28;20025;-75
2023/12/26 07:02:13;;;;;;;12.82;0.70;;;8.30;99.90;;;;;;5051014;28;20029;-76
2023/12/26 07:04:41;;;;;;;10.07;0.45;;;8.30;99.90;;;;;;5049892;28;20032;-76
2023/12/26 07:07:07;;;;;;;7.65;0.40;;;8.30;99.90;;;;;;5051241;28;20053;-76
2023/12/26 07:09:33;;;;;;;11.25;0.60;;;8.30;99.90;;;;;;5053192;28;20447;-76
2023/12/26 07:11:59;;;;;;;9.48;0.50;;;8.30;99.90;;;;;;5051616;28;20084;-76
2023/12/26 07:14:24;;;;;;;8.73;0.50;;;8.30;99.90;;;;;;5049190;28;20041;-76
2023/12/26 07:16:50;;;;;;;8.88;0.57;;;8.30;99.90;;;;;;5050229;28;20060;-76
2023/12/26 07:19:16;;;;;;;9.48;0.70;;;8.30;99.90;;;;;;5044832;28;20029;-76
2023/12/26 07:21:42;;;;;;;5.43;0.63;;;8.20;99.90;;;;;;5048694;28;20021;-76
2023/12/26 07:24:07;;;;;;;4.28;0.40;;;8.30;99.90;;;;;;5050285;28;20381;-77
2023/12/26 07:26:33;;;;;;;7.32;0.28;;;8.30;99.90;;;;;;5029439;28;20511;-76
2023/12/26 07:28:59;;;;;;;8.77;0.70;;;8.20;99.90;;;;;;5049790;28;20029;-76
2023/12/26 07:31:25;;;;;;;8.63;0.52;;;8.30;99.90;;;;;;5048671;28;20037;-76
2023/12/26 07:33:51;;;;;;;9.30;0.40;;;8.30;99.90;;;;;;5046599;28;20033;-76
2023/12/26 07:36:17;;;;;;;9.25;0.60;;;8.30;99.90;;;;;;5044276;28;20597;-78
2023/12/26 07:38:43;;;;;;;10.23;0.52;;;8.20;99.90;;;;;;5026697;28;20055;-77
2023/12/26 07:41:09;;;;;;;9.68;1.05;;;8.20;99.90;;;;;;5033893;28;20167;-75
2023/12/26 07:43:39;;;;;;;5.95;0.57;;;8.20;99.90;;;;;;5045644;28;20096;-77
2023/12/26 07:46:05;;;;;;;14.70;1.48;;;8.10;99.90;;;;;;5050116;28;20032;-77
2023/12/26 07:48:31;;;;;;;9.30;0.65;;;8.10;99.90;;;;;;5047277;28;20029;-77
2023/12/26 07:50:57;;;;;;;8.27;1.08;;;8.10;99.90;;;;;;5049626;28;20554;-77
2023/12/26 07:53:22;;;;;;;9.95;0.50;;;8.00;99.90;;;;;;5033600;28;20041;-77
2023/12/26 07:55:51;;;;;;;13.65;0.50;;;8.00;99.90;;;;;;5040105;28;20104;-76
2023/12/26 07:58:16;;;;;;;7.50;0.60;;;7.90;99.90;;;;;;5030574;28;20048;-76
2023/12/26 08:00:44;;;;;;;6.55;0.50;;;8.00;99.90;;;;;;5044380;28;20036;-75
2023/12/26 08:03:15;;;;;;;9.32;0.70;;;7.90;99.90;;;;;;5047520;28;20423;-77
2023/12/26 08:05:42;;;;;;;11.35;0.90;;;8.00;99.90;;;;;;5038342;28;20114;-76
2023/12/26 08:08:09;;;;;;;8.35;0.45;;;8.00;99.90;;;;;;5042706;28;20100;-75
2023/12/26 08:10:35;;;;;;;12.07;0.70;;;8.10;99.90;;;;;;5030178;28;20037;-77
2023/12/26 08:13:04;;;;;;;5.85;0.50;;;8.10;99.90;;;;;;5047689;28;20025;-76
2023/12/26 08:15:30;;;;;;;6.32;0.40;;;8.10;99.90;;;;;;5050124;28;20064;-77
2023/12/26 08:17:59;;;;;;;7.95;0.60;;;8.10;99.90;;;;;;5051803;28;20030;-76
2023/12/26 08:20:25;;;;;;;8.02;0.65;;;8.10;99.90;;;;;;5031102;28;20037;-77
2023/12/26 08:22:50;;;;;;;6.85;0.60;;;8.10;99.90;;;;;;5047140;28;20085;-76
2023/12/26 08:25:16;;;;;;;13.38;0.40;;;8.10;99.90;;;;;;5041961;28;20108;-76
2023/12/26 08:27:42;;;;;;;4.10;0.32;;;8.20;99.90;;;;;;5049047;28;20033;-77
2023/12/26 08:30:08;;;;;;;11.45;1.35;;;8.20;99.90;;;;;;5039626;28;20029;-77
2023/12/26 08:32:34;;;;;;;13.75;0.85;;;8.20;99.90;;;;;;5032875;28;20060;-76
2023/12/26 08:35:00;;;;;;;11.35;0.50;;;8.30;99.90;;;;;;5023646;28;20033;-76
2023/12/26 08:37:27;;;;;;;7.35;0.40;;;8.30;99.90;;;;;;5045486;28;20392;-76
2023/12/26 08:39:53;;;;;;;11.05;0.68;;;8.40;99.90;;;;;;5035251;28;20044;-75
2023/12/26 08:42:19;;;;;;;6.45;0.90;;;8.40;99.90;;;;;;5048837;28;20370;-76
2023/12/26 08:44:45;;;;;;;9.18;0.30;;;8.40;99.90;;;;;;5050475;28;20036;-75
2023/12/26 08:47:11;;;;;;;7.50;0.50;;;8.40;99.90;;;;;;5049106;28;20432;-76
2023/12/26 08:49:37;;;;;;;10.35;0.50;;;8.40;99.90;;;;;;5050266;28;20028;-76
2023/12/26 08:52:03;;;;;;;11.77;1.48;;;8.40;99.90;;;;;;5033137;28;20029;-76
2023/12/26 08:54:28;;;;;;;12.60;0.95;;;8.40;99.90;;;;;;5047917;28;20082;-77
2023/12/26 08:56:57;;;;;;;10.77;0.50;;;8.40;99.90;;;;;;5030395;28;20037;-75
2023/12/26 08:59:22;;;;;;;7.20;0.85;;;8.50;99.90;;;;;;5049376;28;20039;-76
2023/12/26 09:01:48;;;;;;;9.48;0.57;;;8.50;99.90;;;;;;5038038;28;20029;-75
2023/12/26 09:04:14;;;;;;;10.90;0.50;;;8.50;99.90;;;;;;5047625;28;20033;-76
2023/12/26 09:06:39;;;;;;;4.38;0.70;;;8.50;99.90;;;;;;5047550;28;20025;-75
2023/12/26 09:09:06;;;;;;;10.35;1.27;;;8.60;99.90;;;;;;5049106;28;20055;-75
2023/12/26 09:11:32;;;;;;;11.38;0.43;;;8.60;99.90;;;;;;5029653;28;20404;-75
2023/12/26 09:13:58;;;;;;;8.32;1.30;;;8.70;99.90;;;;;;5044328;28;20034;-76
2023/12/26 09:16:24;;;;;;;8.68;0.90;;;8.70;99.90;;;;;;5048803;28;20025;-75
2023/12/26 09:18:50;;;;;;;12.85;1.30;;;8.70;99.90;;;;;;5043639;28;20029;-75
2023/12/26 09:21:16;;;;;;;3.65;0.40;;;8.60;99.90;;;;;;5040644;28;20097;-75
2023/12/26 09:23:41;;;;;;;11.75;0.50;;;8.60;99.90;;;;;;5035754;28;20047;-75
2023/12/26 09:26:07;;;;;;;9.90;0.70;;;8.60;99.90;;;;;;5041169;28;20457;-75
2023/12/26 09:28:33;;;;;;;15.18;1.73;;;8.50;99.90;;;;;;5045711;28;20188;-75
2023/12/26 09:30:59;;;;;;;14.60;2.15;;;8.50;99.90;;;;;;5047270;28;20031;-75
2023/12/26 09:33:25;;;;;;;8.63;0.90;;;8.50;99.90;;;;;;5032448;28;20114;-75
2023/12/26 09:35:50;;;;;;;11.52;0.70;;;8.50;99.90;;;;;;5045146;28;20024;-75
2023/12/26 09:38:16;;;;;;;14.25;0.95;;;8.50;99.90;;;;;;5046678;28;20048;-75
2023/12/26 09:40:42;;;;;;;13.05;0.50;;;8.50;99.90;;;;;;5050919;28;20033;-76
2023/12/26 09:43:07;;;;;;;11.65;0.60;;;8.50;99.90;;;;;;5046265;28;20020;-76
2023/12/26 09:45:34;;;;;;;7.40;0.88;;;8.50;99.90;;;;;;5045819;28;20032;-76
2023/12/26 09:48:00;;;;;;;8.48;1.02;;;8.60;99.90;;;;;;5043248;28;20412;-76
2023/12/26 09:50:27;;;;;;;8.57;0.50;;;8.70;99.90;;;;;;5047641;28;20036;-74
2023/12/26 09:53:01;;;;;;;7.93;0.73;;;8.80;99.90;;;;;;5045089;28;20023;-74
2023/12/26 09:55:28;;;;;;;14.07;0.90;;;8.80;99.90;;;;;;5048446;28;20063;-75
2023/12/26 09:57:56;;;;;;;12.25;1.30;;;8.90;99.90;;;;;;5046832;28;20626;-75
2023/12/26 10:00:26;;;;;;;11.88;0.60;;;9.00;99.90;;;;;;5037912;28;20108;-76
2023/12/26 10:02:53;;;;;;;10.85;0.80;;;9.00;99.90;;;;;;5022829;28;20056;-76
2023/12/26 10:05:19;;;;;;;10.30;0.43;;;9.10;99.90;;;;;;5044646;28;20033;-76
2023/12/26 10:07:44;;;;;;;12.05;0.80;;;9.10;99.90;;;;;;5047683;28;20021;-76
2023/12/26 10:10:20;;;;;;;12.85;0.60;;;9.20;99.90;;;;;;5046050;28;20100;-76
2023/12/26 10:12:49;;;;;;;9.27;0.70;;;9.20;99.90;;;;;;5045424;28;20029;-77
2023/12/26 10:15:16;;;;;;;16.38;0.85;;;9.20;99.90;;;;;;5042470;28;20037;-76
2023/12/26 10:17:45;;;;;;;11.07;0.80;;;9.30;99.90;;;;;;5050439;28;20064;-76
2023/12/26 10:20:14;;;;;;;9.90;1.25;;;9.30;99.90;;;;;;5047058;28;20049;-76
2023/12/26 10:22:45;;;;;;;10.00;0.60;;;9.30;99.90;;;;;;5045151;28;20536;-76
2023/12/26 10:25:14;;;;;;;9.23;0.60;;;9.40;99.90;;;;;;5050106;28;20043;-76
2023/12/26 10:27:52;;;;;;;11.20;1.52;;;9.40;99.90;;;;;;5049769;28;20067;-76
2023/12/26 10:30:18;;;;;;;12.57;1.58;;;9.40;99.90;;;;;;5046318;28;20045;-77
2023/12/26 10:32:43;;;;;;;10.35;0.57;;;9.50;99.90;;;;;;5028486;28;20056;-77
2023/12/26 10:35:15;;;;;;;9.75;0.75;;;9.50;99.90;;;;;;5047792;28;20045;-77
2023/12/26 10:37:42;;;;;;;11.77;0.75;;;9.50;99.90;;;;;;5047578;28;20025;-76
2023/12/26 10:40:08;;;;;;;12.38;0.80;;;9.50;99.90;;;;;;5042091;28;20039;-76
2023/12/26 10:42:41;;;;;;;10.32;0.60;;;9.50;99.90;;;;;;5050313;28;20362;-75
2023/12/26 10:45:08;;;;;;;11.20;0.60;;;9.60;99.90;;;;;;5047830;28;20509;-77
2023/12/26 10:47:34;;;;;;;8.65;1.02;;;9.60;99.90;;;;;;5050417;28;20079;-76
2023/12/26 10:50:02;;;;;;;14.05;1.60;;;9.60;99.90;;;;;;5043988;28;20021;-75
2023/12/26 10:52:30;;;;;;;8.80;0.60;;;9.70;99.90;;;;;;5048490;28;20033;-77
2023/12/26 10:55:00;;;;;;;14.80;1.55;;;9.70;99.90;;;;;;5033101;28;20220;-77
2023/12/26 10:57:32;;;;;;;8.50;0.68;;;9.70;99.90;;;;;;5029436;28;20120;-76
2023/12/26 13:52:23;;;;;;;10.35;0.98;;;9.50;99.90;;;;;;5042724;28;20044;-76
2023/12/26 13:55:26;;;;;;;12.07;0.88;;;9.50;99.90;;;;;;5043251;28;20045;-75
2023/12/26 13:58:29;;;;;;;12.48;0.60;;;9.50;99.90;;;;;;5037291;28;20481;-75
2023/12/26 14:01:14;;;;;;;;;;;9.50;99.90;;;;;;5040278;28;20036;-75
2023/12/26 14:04:17;;;;;;;9.60;0.60;;;9.40;99.90;;;;;;5046057;28;19915;-76
2023/12/26 14:07:21;;;;;;;7.03;0.82;;;9.40;99.90;;;;;;5045532;28;20485;-75
2023/12/26 14:10:24;;;;;;;6.00;0.60;;;9.40;99.90;;;;;;5045190;28;20017;-74
2023/12/26 14:13:27;;;;;;;9.90;1.23;;;9.30;99.90;;;;;;5046792;28;20523;-75
2023/12/26 14:16:30;;;;;;;6.05;0.50;;;9.30;99.90;;;;;;5043139;28;20029;-75
2023/12/26 14:19:34;;;;;;;9.85;0.43;;;9.30;99.90;;;;;;5047853;28;20108;-75
2023/12/26 14:22:37;;;;;;;7.03;0.60;;;9.30;99.90;;;;;;5044289;28;20104;-76
2023/12/26 14:25:40;;;;;;;8.90;0.47;;;9.30;99.90;;;;;;5048825;28;20082;-75
2023/12/26 14:28:43;;;;;;;6.68;0.40;;;9.30;99.90;;;;;;5049984;28;20047;-75
2023/12/26 14:31:28;;;;;;;;;;;9.30;99.90;;;;;;5048532;28;20067;-75
2023/12/26 14:34:31;;;;;;;8.38;0.50;;;9.30;99.90;;;;;;5053367;28;19920;-76
2023/12/26 14:37:34;;;;;;;7.00;0.50;;;9.30;99.90;;;;;;5050608;28;20052;-75
2023/12/26 14:40:19;;;;;;;;;;;9.30;99.90;;;;;;5035079;28;20041;-75
2023/12/26 14:43:22;;;;;;;9.63;0.55;;;9.20;99.90;;;;;;5052173;28;19959;-75
2023/12/26 14:46:24;;;;;;;8.55;0.60;;;9.20;99.90;;;;;;5052633;28;20025;-75
2023/12/26 14:49:27;;;;;;;4.82;0.50;;;9.20;99.90;;;;;;5048151;28;20508;-76
2023/12/26 14:52:11;;;;;;;;;;;9.20;99.90;;;;;;5044744;28;20559;-75
2023/12/26 14:55:14;;;;;;;6.47;0.55;;;9.20;99.90;;;;;;5051398;28;19917;-75
2023/12/26 14:58:17;;;;;;;5.63;0.45;;;9.20;99.90;;;;;;5030727;28;20032;-76
2023/12/26 15:01:21;;;;;;;4.35;0.30;;;9.20;99.90;;;;;;5050146;28;20017;-76
2023/12/26 15:03:48;;;;;;;5.35;0.50;;;9.20;99.90;;;;;;5048248;28;20029;-75
2023/12/26 15:06:18;;;;;;;5.07;0.30;;;9.20;99.90;;;;;;5050911;28;20025;-76
2023/12/26 15:08:43;;;;;;;4.35;0.38;;;9.20;99.90;;;;;;5028750;28;20048;-75
2023/12/26 15:11:16;;;;;;;4.50;0.22;;;9.10;99.90;;;;;;5039607;28;20489;-78
2023/12/26 15:13:42;;;;;;;5.85;0.50;;;9.10;99.90;;;;;;5048722;28;20037;-77
2023/12/26 15:16:16;;;;;;;5.82;0.60;;;9.10;99.90;;;;;;5043860;28;20063;-77
2023/12/26 15:18:42;;;;;;;2.33;0.40;;;9.10;99.90;;;;;;5035543;28;20046;-76
2023/12/26 15:21:07;;;;;;;6.50;0.50;;;9.10;99.90;;;;;;5048835;28;20044;-77
2023/12/26 15:23:33;;;;;;;4.53;0.30;;;9.10;99.90;;;;;;5052574;28;20389;-76
2023/12/26 15:25:59;;;;;;;6.38;0.60;;;9.10;99.90;;;;;;5048520;28;20037;-76
2023/12/26 15:28:25;;;;;;;8.30;0.70;;;9.10;99.90;;;;;;5043754;28;20511;-77
2023/12/26 15:30:51;;;;;;;7.22;0.75;;;9.10;99.90;;;;;;5046167;28;20075;-77
2023/12/26 15:33:18;;;;;;;5.28;0.50;;;9.10;99.90;;;;;;5037871;28;20094;-77
2023/12/26 15:35:53;;;;;;;7.78;0.60;;;9.10;99.90;;;;;;5048641;28;20404;-76
2023/12/26 15:38:19;;;;;;;8.70;0.73;;;9.10;99.90;;;;;;5045537;28;20029;-77
2023/12/26 15:40:45;;;;;;;7.57;0.50;;;9.00;99.90;;;;;;5029500;28;20480;-76
2023/12/26 15:43:11;;;;;;;4.75;0.60;;;9.00;99.90;;;;;;5027972;28;20120;-76
2023/12/26 15:45:37;;;;;;;5.05;0.47;;;9.00;99.90;;;;;;5048432;28;20392;-77
2023/12/26 15:48:02;;;;;;;6.65;0.85;;;9.00;99.90;;;;;;5047459;28;20025;-77
2023/12/26 15:50:31;;;;;;;4.97;0.47;;;9.00;99.90;;;;;;5049769;28;20640;-76
2023/12/26 15:52:57;;;;;;;6.63;0.43;;;9.00;99.90;;;;;;5046355;28;20436;-78